Philip Billard Municipal Airport
KTOP : now visible

Airfield :











YOU CAN JOIN US ON...

 
LOGIN :

Register | Disclaimer

   EN    FR    IT 

 









Legend :    VFR   Marginal VFR   IFR   Intensive IFR   Very Intensive IFR
Visi :
Ceiling :
>= 8 km
>= 3000ft
5 to 8 km
1000 to 3000 ft
1500m to 5 km
500 to 1000 ft
800 to 1500m
200 to 500 ft
< 800m
< 200 ft
Symbols :   Thunderstorms  Fog  Heavy snow  Heavy precipitations  Wind > 20 kt







- Airport Elevation : 881 ft


KTOP - Philip Billard Municipal

CURRENT METAR :
  • 192253Z 29006KT 10SM FEW050 19/08 A2993 RMK AO2 SLP131 T01940078 $

EXPIRED METARs :
  • 192153Z 26012G19KT 10SM SCT050 20/08 A2992 RMK AO2 SLP127 T02000083 $
  • 192053Z 28012G19KT 10SM BKN046 19/09 A2993 RMK AO2 SLP130 T01940089 51017 $

TAF KTOP
Valid from the 19 at 18:00 until the 20 at 18:00 UTC


191734Z 1918/2018 29014G22KT P6SM SCT040
FM200000 32008KT P6SM FEW250
FM200400 36005KT P6SM SCT250
FM201500 07008KT P6SM BKN200
KZKC FIR / North America



MET'MAP, your aeronautical weather chart ! - Copyright ORBIFLY December 2007 - Disclaimer

ORBIFLY MET'MAP TEAM :

Programming & Development : Alexandra Zaïnal
Concept & Development : Baudouin d'Aumeries
Co-Development & Prog : Marc-Olivier Méhu
Technical & hardware support : Manuel Goepfert

Contact : metmap@orbifly.com




SOURCES & CREDITS :

   NOAA       Earth
Advisory